sensor_id;sensor_type;location;lat;lon;timestamp;P1;durP1;ratioP1;P2;durP2;ratioP2
6406;SDS011;3236;51.022;6.818;2023-02-03T00:00:21;7.45;;;4.90;;
6406;SDS011;3236;51.022;6.818;2023-02-03T00:02:48;8.85;;;4.22;;
6406;SDS011;3236;51.022;6.818;2023-02-03T00:05:15;7.20;;;5.00;;
6406;SDS011;3236;51.022;6.818;2023-02-03T00:07:42;17.90;;;5.45;;
6406;SDS011;3236;51.022;6.818;2023-02-03T00:10:11;13.48;;;5.28;;
6406;SDS011;3236;51.022;6.818;2023-02-03T00:12:45;10.02;;;4.43;;
6406;SDS011;3236;51.022;6.818;2023-02-03T00:15:16;5.90;;;4.13;;
6406;SDS011;3236;51.022;6.818;2023-02-03T00:17:43;16.80;;;6.40;;
6406;SDS011;3236;51.022;6.818;2023-02-03T00:20:10;7.72;;;4.63;;
6406;SDS011;3236;51.022;6.818;2023-02-03T00:22:37;6.35;;;4.32;;
6406;SDS011;3236;51.022;6.818;2023-02-03T00:25:06;15.70;;;5.50;;
6406;SDS011;3236;51.022;6.818;2023-02-03T00:27:34;16.52;;;5.75;;
6406;SDS011;3236;51.022;6.818;2023-02-03T00:30:01;13.80;;;6.80;;
6406;SDS011;3236;51.022;6.818;2023-02-03T00:32:29;9.52;;;5.78;;
6406;SDS011;3236;51.022;6.818;2023-02-03T00:34:56;8.00;;;3.97;;
6406;SDS011;3236;51.022;6.818;2023-02-03T00:37:23;7.22;;;4.22;;
6406;SDS011;3236;51.022;6.818;2023-02-03T00:39:50;13.98;;;5.88;;
6406;SDS011;3236;51.022;6.818;2023-02-03T00:42:17;11.65;;;5.32;;
6406;SDS011;3236;51.022;6.818;2023-02-03T00:44:45;13.80;;;4.95;;
6406;SDS011;3236;51.022;6.818;2023-02-03T00:47:12;8.10;;;4.80;;
6406;SDS011;3236;51.022;6.818;2023-02-03T00:49:39;19.48;;;6.05;;
6406;SDS011;3236;51.022;6.818;2023-02-03T00:52:06;28.25;;;4.82;;
6406;SDS011;3236;51.022;6.818;2023-02-03T00:54:36;14.35;;;7.05;;
6406;SDS011;3236;51.022;6.818;2023-02-03T00:57:03;9.50;;;4.90;;
6406;SDS011;3236;51.022;6.818;2023-02-03T00:59:30;11.25;;;5.00;;
6406;SDS011;3236;51.022;6.818;2023-02-03T01:02:01;8.48;;;3.92;;
6406;SDS011;3236;51.022;6.818;2023-02-03T01:04:28;16.02;;;5.43;;
6406;SDS011;3236;51.022;6.818;2023-02-03T01:06:55;6.60;;;3.47;;
6406;SDS011;3236;51.022;6.818;2023-02-03T01:09:23;11.73;;;4.90;;
6406;SDS011;3236;51.022;6.818;2023-02-03T01:11:51;12.02;;;4.05;;
6406;SDS011;3236;51.022;6.818;2023-02-03T01:14:18;6.72;;;3.45;;
6406;SDS011;3236;51.022;6.818;2023-02-03T01:16:45;8.75;;;3.97;;
6406;SDS011;3236;51.022;6.818;2023-02-03T01:19:13;15.52;;;4.78;;
6406;SDS011;3236;51.022;6.818;2023-02-03T01:21:41;13.15;;;4.07;;
6406;SDS011;3236;51.022;6.818;2023-02-03T01:24:08;7.55;;;3.58;;
6406;SDS011;3236;51.022;6.818;2023-02-03T01:26:35;10.00;;;4.55;;
6406;SDS011;3236;51.022;6.818;2023-02-03T01:29:02;6.95;;;2.65;;
6406;SDS011;3236;51.022;6.818;2023-02-03T01:31:30;10.05;;;3.60;;
6406;SDS011;3236;51.022;6.818;2023-02-03T01:33:59;5.93;;;3.78;;
6406;SDS011;3236;51.022;6.818;2023-02-03T01:36:31;14.07;;;3.85;;
6406;SDS011;3236;51.022;6.818;2023-02-03T01:38:59;7.13;;;2.47;;
6406;SDS011;3236;51.022;6.818;2023-02-03T01:41:27;12.25;;;3.45;;
6406;SDS011;3236;51.022;6.818;2023-02-03T01:43:56;11.38;;;3.17;;
6406;SDS011;3236;51.022;6.818;2023-02-03T01:46:26;9.95;;;3.75;;
6406;SDS011;3236;51.022;6.818;2023-02-03T01:48:58;10.75;;;3.97;;
6406;SDS011;3236;51.022;6.818;2023-02-03T01:51:32;9.35;;;2.75;;
6406;SDS011;3236;51.022;6.818;2023-02-03T01:54:00;9.18;;;2.63;;
6406;SDS011;3236;51.022;6.818;2023-02-03T01:56:29;7.93;;;4.05;;
6406;SDS011;3236;51.022;6.818;2023-02-03T01:58:59;11.02;;;3.22;;
6406;SDS011;3236;51.022;6.818;2023-02-03T02:01:29;10.18;;;3.38;;
6406;SDS011;3236;51.022;6.818;2023-02-03T02:06:26;9.32;;;3.28;;
6406;SDS011;3236;51.022;6.818;2023-02-03T02:08:55;14.90;;;4.32;;
6406;SDS011;3236;51.022;6.818;2023-02-03T02:11:25;8.77;;;3.87;;
6406;SDS011;3236;51.022;6.818;2023-02-03T02:13:53;6.97;;;2.92;;
6406;SDS011;3236;51.022;6.818;2023-02-03T02:16:26;5.70;;;2.75;;
6406;SDS011;3236;51.022;6.818;2023-02-03T02:19:02;7.43;;;2.90;;
6406;SDS011;3236;51.022;6.818;2023-02-03T02:21:51;8.10;;;3.55;;
6406;SDS011;3236;51.022;6.818;2023-02-03T02:24:38;4.60;;;1.85;;
6406;SDS011;3236;51.022;6.818;2023-02-03T02:30:35;6.03;;;2.92;;
6406;SDS011;3236;51.022;6.818;2023-02-03T02:33:19;9.50;;;2.90;;
6406;SDS011;3236;51.022;6.818;2023-02-03T02:35:56;11.13;;;2.65;;
6406;SDS011;3236;51.022;6.818;2023-02-03T02:38:31;6.95;;;2.13;;
6406;SDS011;3236;51.022;6.818;2023-02-03T02:41:07;9.88;;;2.92;;
6406;SDS011;3236;51.022;6.818;2023-02-03T02:43:40;3.42;;;2.88;;
6406;SDS011;3236;51.022;6.818;2023-02-03T02:46:10;13.10;;;3.58;;
6406;SDS011;3236;51.022;6.818;2023-02-03T02:48:41;22.63;;;3.47;;
6406;SDS011;3236;51.022;6.818;2023-02-03T02:51:13;10.13;;;3.45;;
6406;SDS011;3236;51.022;6.818;2023-02-03T02:53:43;9.02;;;2.80;;
6406;SDS011;3236;51.022;6.818;2023-02-03T02:56:14;16.42;;;3.17;;
6406;SDS011;3236;51.022;6.818;2023-02-03T02:58:43;6.75;;;3.13;;
6406;SDS011;3236;51.022;6.818;2023-02-03T03:03:44;11.82;;;2.90;;
6406;SDS011;3236;51.022;6.818;2023-02-03T03:06:17;17.80;;;4.22;;
6406;SDS011;3236;51.022;6.818;2023-02-03T03:08:49;9.55;;;3.25;;
6406;SDS011;3236;51.022;6.818;2023-02-03T03:11:21;9.20;;;3.22;;
6406;SDS011;3236;51.022;6.818;2023-02-03T03:13:51;6.30;;;1.92;;
6406;SDS011;3236;51.022;6.818;2023-02-03T03:16:22;8.63;;;3.97;;
6406;SDS011;3236;51.022;6.818;2023-02-03T03:18:53;10.93;;;3.13;;
6406;SDS011;3236;51.022;6.818;2023-02-03T03:21:24;10.68;;;2.80;;
6406;SDS011;3236;51.022;6.818;2023-02-03T03:23:56;12.45;;;3.50;;
6406;SDS011;3236;51.022;6.818;2023-02-03T03:26:31;3.35;;;2.65;;
6406;SDS011;3236;51.022;6.818;2023-02-03T03:29:03;9.45;;;3.33;;
6406;SDS011;3236;51.022;6.818;2023-02-03T03:31:35;5.60;;;2.40;;
6406;SDS011;3236;51.022;6.818;2023-02-03T03:34:06;7.40;;;2.67;;
6406;SDS011;3236;51.022;6.818;2023-02-03T03:36:36;7.70;;;3.08;;
6406;SDS011;3236;51.022;6.818;2023-02-03T03:39:12;11.10;;;3.80;;
6406;SDS011;3236;51.022;6.818;2023-02-03T03:41:46;7.78;;;3.55;;
6406;SDS011;3236;51.022;6.818;2023-02-03T03:44:23;9.95;;;3.20;;
6406;SDS011;3236;51.022;6.818;2023-02-03T03:46:58;6.55;;;2.90;;
6406;SDS011;3236;51.022;6.818;2023-02-03T03:50:08;9.60;;;3.55;;
6406;SDS011;3236;51.022;6.818;2023-02-03T03:52:38;8.73;;;3.20;;
6406;SDS011;3236;51.022;6.818;2023-02-03T03:55:07;11.23;;;3.60;;
6406;SDS011;3236;51.022;6.818;2023-02-03T03:57:40;9.03;;;3.30;;
6406;SDS011;3236;51.022;6.818;2023-02-03T04:00:10;7.22;;;3.35;;
6406;SDS011;3236;51.022;6.818;2023-02-03T04:02:40;11.65;;;3.63;;
6406;SDS011;3236;51.022;6.818;2023-02-03T04:05:12;4.60;;;2.90;;
6406;SDS011;3236;51.022;6.818;2023-02-03T04:07:41;7.97;;;3.10;;
6406;SDS011;3236;51.022;6.818;2023-02-03T04:10:12;9.55;;;3.10;;
6406;SDS011;3236;51.022;6.818;2023-02-03T04:12:44;6.50;;;2.38;;
6406;SDS011;3236;51.022;6.818;2023-02-03T04:15:11;10.07;;;3.95;;
6406;SDS011;3236;51.022;6.818;2023-02-03T04:17:38;4.70;;;2.70;;
6406;SDS011;3236;51.022;6.818;2023-02-03T04:20:05;10.95;;;3.25;;
6406;SDS011;3236;51.022;6.818;2023-02-03T04:22:34;7.28;;;3.40;;
6406;SDS011;3236;51.022;6.818;2023-02-03T04:25:01;3.28;;;2.72;;
6406;SDS011;3236;51.022;6.818;2023-02-03T04:27:28;7.93;;;3.42;;
6406;SDS011;3236;51.022;6.818;2023-02-03T04:29:57;8.13;;;2.85;;
6406;SDS011;3236;51.022;6.818;2023-02-03T04:32:30;8.23;;;2.90;;
6406;SDS011;3236;51.022;6.818;2023-02-03T04:34:59;12.32;;;2.78;;
6406;SDS011;3236;51.022;6.818;2023-02-03T04:37:27;12.95;;;2.88;;
6406;SDS011;3236;51.022;6.818;2023-02-03T04:39:55;9.48;;;4.10;;
6406;SDS011;3236;51.022;6.818;2023-02-03T04:42:22;8.95;;;2.60;;
6406;SDS011;3236;51.022;6.818;2023-02-03T04:44:50;9.75;;;2.45;;
6406;SDS011;3236;51.022;6.818;2023-02-03T04:47:17;8.57;;;2.70;;
6406;SDS011;3236;51.022;6.818;2023-02-03T04:49:45;10.13;;;3.15;;
6406;SDS011;3236;51.022;6.818;2023-02-03T04:52:12;4.63;;;2.10;;
6406;SDS011;3236;51.022;6.818;2023-02-03T04:54:39;11.57;;;3.25;;
6406;SDS011;3236;51.022;6.818;2023-02-03T04:57:07;10.40;;;2.78;;
6406;SDS011;3236;51.022;6.818;2023-02-03T04:59:34;6.93;;;2.42;;
6406;SDS011;3236;51.022;6.818;2023-02-03T05:02:01;8.00;;;2.17;;
6406;SDS011;3236;51.022;6.818;2023-02-03T05:04:29;3.10;;;1.77;;
6406;SDS011;3236;51.022;6.818;2023-02-03T05:06:56;11.48;;;2.50;;
6406;SDS011;3236;51.022;6.818;2023-02-03T05:09:23;8.10;;;1.88;;
6406;SDS011;3236;51.022;6.818;2023-02-03T05:11:51;14.25;;;3.33;;
6406;SDS011;3236;51.022;6.818;2023-02-03T05:14:21;2.05;;;1.65;;
6406;SDS011;3236;51.022;6.818;2023-02-03T05:16:48;7.05;;;2.53;;
6406;SDS011;3236;51.022;6.818;2023-02-03T05:19:15;3.78;;;2.13;;
6406;SDS011;3236;51.022;6.818;2023-02-03T05:21:42;4.82;;;2.00;;
6406;SDS011;3236;51.022;6.818;2023-02-03T05:24:10;2.92;;;1.75;;
6406;SDS011;3236;51.022;6.818;2023-02-03T05:26:40;2.33;;;1.40;;
6406;SDS011;3236;51.022;6.818;2023-02-03T05:29:09;12.80;;;2.75;;
6406;SDS011;3236;51.022;6.818;2023-02-03T05:31:38;6.35;;;1.95;;
6406;SDS011;3236;51.022;6.818;2023-02-03T05:34:07;5.30;;;1.63;;
6406;SDS011;3236;51.022;6.818;2023-02-03T05:36:34;6.50;;;1.67;;
6406;SDS011;3236;51.022;6.818;2023-02-03T05:39:01;9.65;;;2.17;;
6406;SDS011;3236;51.022;6.818;2023-02-03T05:41:29;5.30;;;1.77;;
6406;SDS011;3236;51.022;6.818;2023-02-03T05:44:13;7.93;;;2.58;;
6406;SDS011;3236;51.022;6.818;2023-02-03T05:46:41;15.20;;;2.10;;
6406;SDS011;3236;51.022;6.818;2023-02-03T05:49:08;8.75;;;2.65;;
6406;SDS011;3236;51.022;6.818;2023-02-03T05:51:35;9.48;;;2.25;;
6406;SDS011;3236;51.022;6.818;2023-02-03T05:54:03;4.65;;;1.60;;
6406;SDS011;3236;51.022;6.818;2023-02-03T05:56:37;8.52;;;1.25;;
6406;SDS011;3236;51.022;6.818;2023-02-03T05:59:07;6.35;;;2.03;;
6406;SDS011;3236;51.022;6.818;2023-02-03T06:01:36;7.07;;;1.63;;
6406;SDS011;3236;51.022;6.818;2023-02-03T06:04:04;5.10;;;1.58;;
6406;SDS011;3236;51.022;6.818;2023-02-03T06:06:31;1.77;;;1.38;;
6406;SDS011;3236;51.022;6.818;2023-02-03T06:08:59;4.32;;;2.05;;
6406;SDS011;3236;51.022;6.818;2023-02-03T06:11:26;10.20;;;1.60;;
6406;SDS011;3236;51.022;6.818;2023-02-03T06:13:54;3.95;;;1.30;;
6406;SDS011;3236;51.022;6.818;2023-02-03T06:16:22;6.07;;;1.45;;
6406;SDS011;3236;51.022;6.818;2023-02-03T06:18:50;2.65;;;1.15;;
6406;SDS011;3236;51.022;6.818;2023-02-03T06:21:21;4.57;;;1.15;;
6406;SDS011;3236;51.022;6.818;2023-02-03T06:23:48;1.58;;;1.30;;
6406;SDS011;3236;51.022;6.818;2023-02-03T06:26:15;12.98;;;3.17;;
6406;SDS011;3236;51.022;6.818;2023-02-03T06:28:42;5.95;;;1.20;;
6406;SDS011;3236;51.022;6.818;2023-02-03T06:31:09;4.80;;;1.13;;
6406;SDS011;3236;51.022;6.818;2023-02-03T06:33:36;5.90;;;1.80;;
6406;SDS011;3236;51.022;6.818;2023-02-03T06:36:05;3.20;;;1.55;;
6406;SDS011;3236;51.022;6.818;2023-02-03T06:38:34;11.50;;;3.08;;
6406;SDS011;3236;51.022;6.818;2023-02-03T06:41:01;8.95;;;2.50;;
6406;SDS011;3236;51.022;6.818;2023-02-03T06:43:28;5.55;;;1.98;;
6406;SDS011;3236;51.022;6.818;2023-02-03T06:45:55;4.72;;;1.30;;
6406;SDS011;3236;51.022;6.818;2023-02-03T06:48:22;4.13;;;1.35;;
6406;SDS011;3236;51.022;6.818;2023-02-03T06:50:49;1.70;;;0.88;;
6406;SDS011;3236;51.022;6.818;2023-02-03T06:53:16;5.22;;;1.50;;
6406;SDS011;3236;51.022;6.818;2023-02-03T06:55:45;7.72;;;1.55;;
6406;SDS011;3236;51.022;6.818;2023-02-03T06:58:12;2.78;;;1.30;;
6406;SDS011;3236;51.022;6.818;2023-02-03T07:00:42;5.85;;;2.20;;
6406;SDS011;3236;51.022;6.818;2023-02-03T07:03:09;8.93;;;2.53;;
6406;SDS011;3236;51.022;6.818;2023-02-03T07:05:36;4.30;;;1.48;;
6406;SDS011;3236;51.022;6.818;2023-02-03T07:08:04;5.80;;;1.88;;
6406;SDS011;3236;51.022;6.818;2023-02-03T07:10:31;2.17;;;1.40;;
6406;SDS011;3236;51.022;6.818;2023-02-03T07:13:02;7.80;;;2.13;;
6406;SDS011;3236;51.022;6.818;2023-02-03T07:15:30;3.08;;;0.82;;
6406;SDS011;3236;51.022;6.818;2023-02-03T07:18:00;7.50;;;1.05;;
6406;SDS011;3236;51.022;6.818;2023-02-03T07:20:30;3.55;;;1.30;;
6406;SDS011;3236;51.022;6.818;2023-02-03T07:22:59;9.85;;;1.42;;
6406;SDS011;3236;51.022;6.818;2023-02-03T07:25:26;5.13;;;1.50;;
6406;SDS011;3236;51.022;6.818;2023-02-03T07:27:54;3.80;;;0.93;;
6406;SDS011;3236;51.022;6.818;2023-02-03T07:30:23;6.07;;;1.30;;
6406;SDS011;3236;51.022;6.818;2023-02-03T07:32:50;4.15;;;1.00;;
6406;SDS011;3236;51.022;6.818;2023-02-03T07:35:19;5.35;;;1.20;;
6406;SDS011;3236;51.022;6.818;2023-02-03T07:37:46;5.00;;;1.20;;
6406;SDS011;3236;51.022;6.818;2023-02-03T07:40:21;5.88;;;1.35;;
6406;SDS011;3236;51.022;6.818;2023-02-03T07:42:48;2.72;;;0.75;;
6406;SDS011;3236;51.022;6.818;2023-02-03T07:45:16;4.45;;;0.80;;
6406;SDS011;3236;51.022;6.818;2023-02-03T07:47:45;2.50;;;0.98;;
6406;SDS011;3236;51.022;6.818;2023-02-03T07:50:12;7.85;;;1.77;;
6406;SDS011;3236;51.022;6.818;2023-02-03T07:52:39;3.40;;;1.35;;
6406;SDS011;3236;51.022;6.818;2023-02-03T07:55:07;11.50;;;1.45;;
6406;SDS011;3236;51.022;6.818;2023-02-03T07:57:35;5.70;;;0.88;;
6406;SDS011;3236;51.022;6.818;2023-02-03T08:00:16;10.68;;;2.33;;
6406;SDS011;3236;51.022;6.818;2023-02-03T08:02:45;7.32;;;1.23;;
6406;SDS011;3236;51.022;6.818;2023-02-03T08:05:12;6.82;;;1.08;;
6406;SDS011;3236;51.022;6.818;2023-02-03T08:07:40;3.47;;;1.00;;
6406;SDS011;3236;51.022;6.818;2023-02-03T08:10:08;2.80;;;1.20;;
6406;SDS011;3236;51.022;6.818;2023-02-03T08:12:36;5.65;;;1.30;;
6406;SDS011;3236;51.022;6.818;2023-02-03T08:15:03;3.33;;;1.40;;
6406;SDS011;3236;51.022;6.818;2023-02-03T08:17:31;7.75;;;1.83;;
6406;SDS011;3236;51.022;6.818;2023-02-03T08:20:00;1.85;;;0.95;;
6406;SDS011;3236;51.022;6.818;2023-02-03T08:22:27;3.60;;;0.95;;
6406;SDS011;3236;51.022;6.818;2023-02-03T08:24:59;3.33;;;1.30;;
6406;SDS011;3236;51.022;6.818;2023-02-03T08:27:26;5.75;;;1.30;;
6406;SDS011;3236;51.022;6.818;2023-02-03T08:29:53;4.68;;;1.30;;
6406;SDS011;3236;51.022;6.818;2023-02-03T08:32:20;7.75;;;1.25;;
6406;SDS011;3236;51.022;6.818;2023-02-03T08:34:49;6.75;;;1.42;;
6406;SDS011;3236;51.022;6.818;2023-02-03T08:37:19;5.43;;;1.67;;
6406;SDS011;3236;51.022;6.818;2023-02-03T08:39:48;6.55;;;1.52;;
6406;SDS011;3236;51.022;6.818;2023-02-03T08:42:21;5.07;;;1.80;;
6406;SDS011;3236;51.022;6.818;2023-02-03T08:44:48;1.63;;;0.95;;
6406;SDS011;3236;51.022;6.818;2023-02-03T08:47:16;5.07;;;1.20;;
6406;SDS011;3236;51.022;6.818;2023-02-03T08:49:44;1.90;;;1.00;;
6406;SDS011;3236;51.022;6.818;2023-02-03T08:52:11;11.07;;;1.60;;
6406;SDS011;3236;51.022;6.818;2023-02-03T08:54:40;5.95;;;1.23;;
6406;SDS011;3236;51.022;6.818;2023-02-03T08:57:07;5.55;;;0.90;;
6406;SDS011;3236;51.022;6.818;2023-02-03T08:59:35;10.68;;;1.38;;
6406;SDS011;3236;51.022;6.818;2023-02-03T09:02:04;2.15;;;1.00;;
6406;SDS011;3236;51.022;6.818;2023-02-03T09:04:34;12.00;;;1.90;;
6406;SDS011;3236;51.022;6.818;2023-02-03T09:07:04;5.35;;;1.50;;
6406;SDS011;3236;51.022;6.818;2023-02-03T09:09:31;2.17;;;1.15;;
6406;SDS011;3236;51.022;6.818;2023-02-03T09:12:00;3.38;;;1.10;;
6406;SDS011;3236;51.022;6.818;2023-02-03T09:14:35;3.72;;;1.05;;
6406;SDS011;3236;51.022;6.818;2023-02-03T09:17:02;13.60;;;0.98;;
6406;SDS011;3236;51.022;6.818;2023-02-03T09:19:32;1.90;;;1.02;;
6406;SDS011;3236;51.022;6.818;2023-02-03T09:21:59;11.90;;;1.70;;
6406;SDS011;3236;51.022;6.818;2023-02-03T09:24:26;8.07;;;1.65;;
6406;SDS011;3236;51.022;6.818;2023-02-03T09:26:55;5.20;;;1.50;;
6406;SDS011;3236;51.022;6.818;2023-02-03T09:29:23;9.63;;;2.08;;
6406;SDS011;3236;51.022;6.818;2023-02-03T09:31:50;9.80;;;1.58;;
6406;SDS011;3236;51.022;6.818;2023-02-03T09:34:17;4.22;;;1.48;;
6406;SDS011;3236;51.022;6.818;2023-02-03T09:36:45;4.88;;;1.38;;
6406;SDS011;3236;51.022;6.818;2023-02-03T09:39:16;7.95;;;2.05;;
6406;SDS011;3236;51.022;6.818;2023-02-03T09:44:43;8.93;;;1.60;;
6406;SDS011;3236;51.022;6.818;2023-02-03T09:47:17;3.30;;;1.73;;
6406;SDS011;3236;51.022;6.818;2023-02-03T09:49:47;5.80;;;2.13;;
6406;SDS011;3236;51.022;6.818;2023-02-03T09:52:17;5.03;;;2.20;;
6406;SDS011;3236;51.022;6.818;2023-02-03T09:54:48;3.47;;;1.50;;
6406;SDS011;3236;51.022;6.818;2023-02-03T09:57:25;5.72;;;2.03;;
6406;SDS011;3236;51.022;6.818;2023-02-03T09:59:58;6.40;;;2.25;;
6406;SDS011;3236;51.022;6.818;2023-02-03T10:02:39;4.95;;;2.15;;
6406;SDS011;3236;51.022;6.818;2023-02-03T10:05:16;4.88;;;1.60;;
6406;SDS011;3236;51.022;6.818;2023-02-03T10:07:50;6.30;;;2.30;;
6406;SDS011;3236;51.022;6.818;2023-02-03T10:10:28;6.40;;;1.80;;
6406;SDS011;3236;51.022;6.818;2023-02-03T10:13:09;9.95;;;2.40;;
6406;SDS011;3236;51.022;6.818;2023-02-03T10:15:46;3.15;;;1.70;;
6406;SDS011;3236;51.022;6.818;2023-02-03T10:18:39;5.72;;;2.42;;
6406;SDS011;3236;51.022;6.818;2023-02-03T10:21:11;2.15;;;1.33;;
6406;SDS011;3236;51.022;6.818;2023-02-03T10:23:44;8.68;;;2.70;;
6406;SDS011;3236;51.022;6.818;2023-02-03T10:26:14;6.53;;;2.47;;
6406;SDS011;3236;51.022;6.818;2023-02-03T10:31:18;5.30;;;2.38;;
6406;SDS011;3236;51.022;6.818;2023-02-03T10:33:47;3.75;;;2.22;;
6406;SDS011;3236;51.022;6.818;2023-02-03T10:36:20;8.15;;;3.65;;
6406;SDS011;3236;51.022;6.818;2023-02-03T10:38:51;4.30;;;2.90;;
6406;SDS011;3236;51.022;6.818;2023-02-03T10:41:24;7.70;;;3.05;;
6406;SDS011;3236;51.022;6.818;2023-02-03T10:43:54;6.30;;;2.72;;
6406;SDS011;3236;51.022;6.818;2023-02-03T10:46:26;8.20;;;3.55;;
6406;SDS011;3236;51.022;6.818;2023-02-03T10:48:55;3.17;;;2.40;;
6406;SDS011;3236;51.022;6.818;2023-02-03T10:51:24;3.97;;;2.72;;
6406;SDS011;3236;51.022;6.818;2023-02-03T10:53:55;7.20;;;2.10;;
6406;SDS011;3236;51.022;6.818;2023-02-03T10:56:24;7.40;;;2.78;;
6406;SDS011;3236;51.022;6.818;2023-02-03T10:58:57;7.07;;;2.72;;
6406;SDS011;3236;51.022;6.818;2023-02-03T11:01:27;7.15;;;2.65;;
6406;SDS011;3236;51.022;6.818;2023-02-03T11:04:05;6.80;;;3.22;;
6406;SDS011;3236;51.022;6.818;2023-02-03T11:06:52;7.18;;;3.63;;
6406;SDS011;3236;51.022;6.818;2023-02-03T11:09:29;9.40;;;3.70;;
6406;SDS011;3236;51.022;6.818;2023-02-03T11:14:44;6.80;;;3.78;;
6406;SDS011;3236;51.022;6.818;2023-02-03T11:17:16;4.75;;;2.83;;
6406;SDS011;3236;51.022;6.818;2023-02-03T11:19:47;4.18;;;2.78;;
6406;SDS011;3236;51.022;6.818;2023-02-03T11:22:25;5.70;;;4.20;;
6406;SDS011;3236;51.022;6.818;2023-02-03T11:24:54;7.93;;;4.28;;
6406;SDS011;3236;51.022;6.818;2023-02-03T11:27:21;10.07;;;4.85;;
6406;SDS011;3236;51.022;6.818;2023-02-03T11:29:53;7.28;;;4.22;;
6406;SDS011;3236;51.022;6.818;2023-02-03T11:32:38;8.02;;;5.15;;
6406;SDS011;3236;51.022;6.818;2023-02-03T11:35:12;9.65;;;5.28;;
6406;SDS011;3236;51.022;6.818;2023-02-03T11:37:42;6.38;;;4.32;;
6406;SDS011;3236;51.022;6.818;2023-02-03T11:40:12;11.80;;;5.32;;
6406;SDS011;3236;51.022;6.818;2023-02-03T11:43:01;12.55;;;5.85;;
6406;SDS011;3236;51.022;6.818;2023-02-03T11:45:32;7.93;;;5.68;;
6406;SDS011;3236;51.022;6.818;2023-02-03T11:48:12;6.20;;;4.43;;
6406;SDS011;3236;51.022;6.818;2023-02-03T11:50:48;11.57;;;5.95;;
6406;SDS011;3236;51.022;6.818;2023-02-03T11:53:25;9.70;;;5.30;;
6406;SDS011;3236;51.022;6.818;2023-02-03T11:56:09;14.30;;;6.82;;
6406;SDS011;3236;51.022;6.818;2023-02-03T11:58:48;10.48;;;6.65;;
6406;SDS011;3236;51.022;6.818;2023-02-03T12:01:44;8.95;;;5.47;;
6406;SDS011;3236;51.022;6.818;2023-02-03T12:04:35;15.90;;;7.80;;
6406;SDS011;3236;51.022;6.818;2023-02-03T12:07:32;17.75;;;7.45;;
6406;SDS011;3236;51.022;6.818;2023-02-03T12:10:21;8.45;;;5.05;;
6406;SDS011;3236;51.022;6.818;2023-02-03T12:13:02;12.25;;;6.47;;
6406;SDS011;3236;51.022;6.818;2023-02-03T12:18:30;11.05;;;6.20;;
6406;SDS011;3236;51.022;6.818;2023-02-03T12:21:15;10.15;;;5.55;;
6406;SDS011;3236;51.022;6.818;2023-02-03T12:23:59;11.48;;;7.10;;
6406;SDS011;3236;51.022;6.818;2023-02-03T12:26:33;11.27;;;4.68;;
6406;SDS011;3236;51.022;6.818;2023-02-03T12:29:08;7.70;;;5.32;;
6406;SDS011;3236;51.022;6.818;2023-02-03T12:31:38;15.13;;;6.70;;
6406;SDS011;3236;51.022;6.818;2023-02-03T12:34:12;15.77;;;7.20;;
6406;SDS011;3236;51.022;6.818;2023-02-03T12:36:46;13.73;;;7.53;;
6406;SDS011;3236;51.022;6.818;2023-02-03T12:39:19;11.52;;;6.25;;
6406;SDS011;3236;51.022;6.818;2023-02-03T12:41:53;11.32;;;5.50;;
6406;SDS011;3236;51.022;6.818;2023-02-03T12:44:26;9.68;;;6.53;;
6406;SDS011;3236;51.022;6.818;2023-02-03T12:46:59;15.48;;;6.20;;
6406;SDS011;3236;51.022;6.818;2023-02-03T12:49:33;14.52;;;8.20;;
6406;SDS011;3236;51.022;6.818;2023-02-03T12:52:08;12.85;;;7.15;;
6406;SDS011;3236;51.022;6.818;2023-02-03T12:54:43;14.15;;;7.03;;
6406;SDS011;3236;51.022;6.818;2023-02-03T12:57:16;15.00;;;8.45;;
6406;SDS011;3236;51.022;6.818;2023-02-03T13:02:23;10.02;;;6.10;;
6406;SDS011;3236;51.022;6.818;2023-02-03T13:04:56;17.73;;;8.63;;
6406;SDS011;3236;51.022;6.818;2023-02-03T13:07:35;8.32;;;7.00;;
6406;SDS011;3236;51.022;6.818;2023-02-03T13:10:13;8.45;;;6.30;;
6406;SDS011;3236;51.022;6.818;2023-02-03T13:12:45;8.70;;;6.55;;
6406;SDS011;3236;51.022;6.818;2023-02-03T13:15:18;13.30;;;8.02;;
6406;SDS011;3236;51.022;6.818;2023-02-03T13:17:52;14.95;;;7.78;;
6406;SDS011;3236;51.022;6.818;2023-02-03T13:20:23;14.98;;;6.43;;
6406;SDS011;3236;51.022;6.818;2023-02-03T13:22:54;16.95;;;8.40;;
6406;SDS011;3236;51.022;6.818;2023-02-03T13:25:22;9.73;;;8.13;;
6406;SDS011;3236;51.022;6.818;2023-02-03T13:27:56;9.13;;;5.93;;
6406;SDS011;3236;51.022;6.818;2023-02-03T13:30:39;11.45;;;6.82;;
6406;SDS011;3236;51.022;6.818;2023-02-03T13:33:32;11.15;;;6.80;;
6406;SDS011;3236;51.022;6.818;2023-02-03T13:36:05;9.48;;;5.90;;
6406;SDS011;3236;51.022;6.818;2023-02-03T13:39:02;19.58;;;7.05;;
6406;SDS011;3236;51.022;6.818;2023-02-03T13:41:46;9.88;;;5.45;;
6406;SDS011;3236;51.022;6.818;2023-02-03T13:44:15;6.60;;;5.03;;
6406;SDS011;3236;51.022;6.818;2023-02-03T13:46:47;9.57;;;5.95;;
6406;SDS011;3236;51.022;6.818;2023-02-03T13:49:20;9.30;;;5.75;;
6406;SDS011;3236;51.022;6.818;2023-02-03T13:51:50;12.73;;;6.10;;
6406;SDS011;3236;51.022;6.818;2023-02-03T13:54:22;10.35;;;4.47;;
6406;SDS011;3236;51.022;6.818;2023-02-03T13:56:53;16.13;;;6.63;;
6406;SDS011;3236;51.022;6.818;2023-02-03T13:59:39;15.43;;;6.43;;
6406;SDS011;3236;51.022;6.818;2023-02-03T14:05:06;11.38;;;5.90;;
6406;SDS011;3236;51.022;6.818;2023-02-03T14:07:49;16.45;;;6.53;;
6406;SDS011;3236;51.022;6.818;2023-02-03T14:10:20;14.38;;;5.32;;
6406;SDS011;3236;51.022;6.818;2023-02-03T14:12:56;7.95;;;4.38;;
6406;SDS011;3236;51.022;6.818;2023-02-03T14:15:28;7.07;;;3.13;;
6406;SDS011;3236;51.022;6.818;2023-02-03T14:18:04;6.63;;;4.53;;
6406;SDS011;3236;51.022;6.818;2023-02-03T14:23:22;9.50;;;3.33;;
6406;SDS011;3236;51.022;6.818;2023-02-03T14:25:57;9.80;;;3.50;;
6406;SDS011;3236;51.022;6.818;2023-02-03T14:28:35;14.43;;;3.83;;
6406;SDS011;3236;51.022;6.818;2023-02-03T14:31:09;14.05;;;3.22;;
6406;SDS011;3236;51.022;6.818;2023-02-03T14:36:48;5.13;;;3.00;;
6406;SDS011;3236;51.022;6.818;2023-02-03T14:42:30;4.10;;;2.92;;
6406;SDS011;3236;51.022;6.818;2023-02-03T14:45:30;10.10;;;3.50;;
6406;SDS011;3236;51.022;6.818;2023-02-03T14:51:20;10.98;;;3.58;;
6406;SDS011;3236;51.022;6.818;2023-02-03T14:54:03;7.10;;;2.95;;
6406;SDS011;3236;51.022;6.818;2023-02-03T14:56:51;9.10;;;3.50;;
6406;SDS011;3236;51.022;6.818;2023-02-03T15:00:03;11.20;;;3.63;;
6406;SDS011;3236;51.022;6.818;2023-02-03T15:02:35;10.15;;;2.90;;
6406;SDS011;3236;51.022;6.818;2023-02-03T15:08:30;8.20;;;3.05;;
6406;SDS011;3236;51.022;6.818;2023-02-03T15:11:26;8.55;;;3.38;;
6406;SDS011;3236;51.022;6.818;2023-02-03T15:13:56;4.97;;;3.10;;
6406;SDS011;3236;51.022;6.818;2023-02-03T15:16:41;9.65;;;2.78;;
6406;SDS011;3236;51.022;6.818;2023-02-03T15:19:16;9.00;;;3.08;;
6406;SDS011;3236;51.022;6.818;2023-02-03T15:21:49;9.40;;;3.50;;
6406;SDS011;3236;51.022;6.818;2023-02-03T15:24:17;18.60;;;3.42;;
6406;SDS011;3236;51.022;6.818;2023-02-03T15:26:50;12.63;;;4.10;;
6406;SDS011;3236;51.022;6.818;2023-02-03T15:29:23;6.93;;;3.55;;
6406;SDS011;3236;51.022;6.818;2023-02-03T15:32:07;9.52;;;3.40;;
6406;SDS011;3236;51.022;6.818;2023-02-03T15:34:40;9.02;;;3.58;;
6406;SDS011;3236;51.022;6.818;2023-02-03T15:37:15;10.70;;;2.97;;
6406;SDS011;3236;51.022;6.818;2023-02-03T15:39:48;14.90;;;3.15;;
6406;SDS011;3236;51.022;6.818;2023-02-03T15:42:25;16.63;;;3.50;;
6406;SDS011;3236;51.022;6.818;2023-02-03T15:44:58;13.05;;;3.47;;
6406;SDS011;3236;51.022;6.818;2023-02-03T15:47:31;11.05;;;3.00;;
6406;SDS011;3236;51.022;6.818;2023-02-03T15:50:12;5.00;;;3.05;;
6406;SDS011;3236;51.022;6.818;2023-02-03T15:52:50;8.95;;;2.92;;
6406;SDS011;3236;51.022;6.818;2023-02-03T15:55:23;9.52;;;3.88;;
6406;SDS011;3236;51.022;6.818;2023-02-03T15:57:56;10.90;;;3.97;;
6406;SDS011;3236;51.022;6.818;2023-02-03T16:00:30;6.45;;;3.95;;
6406;SDS011;3236;51.022;6.818;2023-02-03T16:03:04;12.07;;;4.80;;
6406;SDS011;3236;51.022;6.818;2023-02-03T16:05:41;12.80;;;4.95;;
6406;SDS011;3236;51.022;6.818;2023-02-03T16:08:26;11.27;;;5.65;;
6406;SDS011;3236;51.022;6.818;2023-02-03T16:10:54;17.98;;;6.13;;
6406;SDS011;3236;51.022;6.818;2023-02-03T16:13:22;16.75;;;5.13;;
6406;SDS011;3236;51.022;6.818;2023-02-03T16:15:59;13.80;;;5.68;;
6406;SDS011;3236;51.022;6.818;2023-02-03T16:18:34;13.35;;;5.38;;